Time;durP1;ratioP1;P1;durP2;ratioP2;P2;SDS_P1;SDS_P2;PMS_P1;PMS_P2;Temp;Humidity;BMP_temperature;BMP_pressure;BME280_temperature;BME280_humidity;BME280_pressure;Samples;Min_cycle;Max_cycle;Signal;HPM_P1;HPM_P2
2022/06/22 00:02:06;;;;;;;0.20;0.20;;;;;;;22.57;66.71;100084.41;4996119;28;20069;-77
2022/06/22 00:04:41;;;;;;;0.10;0.10;;;;;;;22.52;66.51;100072.81;4996281;28;20389;-77
2022/06/22 00:07:35;;;;;;;0.10;0.10;;;;;;;22.47;66.44;100069.28;4996275;28;20479;-77
2022/06/22 00:10:28;;;;;;;0.20;0.20;;;;;;;22.47;66.38;100065.66;4986843;28;20042;-77
2022/06/22 00:12:56;;;;;;;0.15;0.15;;;;;;;22.46;66.11;100061.25;4995972;28;20034;-77
2022/06/22 00:15:38;;;;;;;0.17;0.17;;;;;;;22.53;65.98;100048.91;4996604;28;20045;-77
2022/06/22 00:18:32;;;;;;;0.20;0.20;;;;;;;22.46;66.28;100047.06;4996387;28;20034;-77
2022/06/22 00:21:24;;;;;;;0.10;0.10;;;;;;;22.46;66.51;100050.69;4998969;28;20026;-76
2022/06/22 00:23:53;;;;;;;0.10;0.10;;;;;;;22.43;66.52;100042.31;4999737;28;20420;-77
2022/06/22 00:26:24;;;;;;;0.10;0.10;;;;;;;22.22;66.98;100013.31;4998938;28;20117;-77
2022/06/22 00:28:59;;;;;;;0.17;0.17;;;;;;;22.38;66.88;100037.97;4998870;28;20065;-77
2022/06/22 00:31:36;;;;;;;0.10;0.10;;;;;;;22.43;66.38;100037.44;4999370;28;20476;-75
2022/06/22 00:34:10;;;;;;;0.10;0.10;;;;;;;22.24;66.55;100015.69;4998873;28;20080;-77
2022/06/22 00:37:00;;;;;;;0.10;0.10;;;;;;;22.36;66.82;100029.09;4999034;28;20042;-76
2022/06/22 00:39:28;;;;;;;0.10;0.10;;;;;;;22.41;66.72;100027.78;4959423;28;20049;-77
2022/06/22 00:42:15;;;;;;;0.10;0.10;;;;;;;22.26;66.61;100003.91;4998654;28;20120;-77
2022/06/22 00:45:11;;;;;;;0.10;0.10;;;;;;;22.37;66.84;100027.06;4999313;28;20124;-77
2022/06/22 00:47:48;;;;;;;0.10;0.10;;;;;;;22.35;66.92;100027.53;4998737;28;20030;-77
2022/06/22 00:50:24;;;;;;;0.10;0.10;;;;;;;22.34;68.17;100025.16;5016937;28;20025;-75
2022/06/22 00:53:00;;;;;;;0.20;0.20;;;;;;;22.31;68.17;100026.81;4998698;28;20022;-75
2022/06/22 00:55:31;;;;;;;0.10;0.10;;;;;;;22.32;67.88;100034.09;4998589;28;20037;-75
2022/06/22 00:58:26;;;;;;;0.10;0.10;;;;;;;22.39;67.55;100025.41;4998441;28;20030;-75
2022/06/22 01:01:25;;;;;;;0.10;0.10;;;;;;;22.35;67.64;100021.84;5014779;28;20033;-75
2022/06/22 01:03:56;;;;;;;0.10;0.10;;;;;;;22.29;67.85;100020.81;4999056;28;20385;-75
2022/06/22 01:06:28;;;;;;;0.10;0.10;;;;;;;22.31;68.29;100026.03;4998646;28;20056;-75
2022/06/22 01:09:13;;;;;;;0.15;0.15;;;;;;;22.23;68.62;100023.41;4998333;28;20121;-75
2022/06/22 01:12:17;;;;;;;0.10;0.10;;;;;;;22.24;69.39;100015.69;4998903;28;20465;-75
2022/06/22 01:15:12;;;;;;;0.20;0.20;;;;;;;22.17;69.93;100015.91;4998611;28;20096;-75
2022/06/22 01:17:37;;;;;;;0.10;0.10;;;;;;;22.11;70.05;100009.19;4998258;28;20038;-75
2022/06/22 01:20:24;;;;;;;0.20;0.20;;;;;;;22.10;69.92;100005.53;4997917;28;20052;-75
2022/06/22 01:23:08;;;;;;;0.20;0.20;;;;;;;21.98;69.15;100004.19;4998951;28;20431;-75
2022/06/22 01:25:55;;;;;;;0.10;0.10;;;;;;;22.06;66.81;99998.38;4998349;28;20037;-75
2022/06/22 01:28:22;;;;;;;0.10;0.10;;;;;;;21.91;66.44;100004.41;4998864;28;20088;-75
2022/06/22 01:30:54;;;;;;;0.20;0.20;;;;;;;21.87;65.36;100009.34;4998249;28;20435;-75
2022/06/22 01:33:38;;;;;;;0.20;0.20;;;;;;;21.81;65.04;100010.34;4997943;28;20030;-76
2022/06/22 01:36:32;;;;;;;0.20;0.20;;;;;;;21.85;64.17;100011.84;4997932;28;20028;-75
2022/06/22 01:39:01;;;;;;;0.20;0.20;;;;;;;21.90;63.09;100013.34;4998320;28;20115;-75
2022/06/22 01:41:38;;;;;;;0.20;0.20;;;;;;;21.91;63.09;100014.94;4997796;28;20484;-75
2022/06/22 01:44:22;;;;;;;0.10;0.10;;;;;;;21.97;62.57;100016.00;4998283;28;20053;-75
2022/06/22 01:46:50;;;;;;;0.20;0.20;;;;;;;21.95;62.65;100019.28;4997495;28;20030;-75
2022/06/22 01:49:25;;;;;;;0.10;0.10;;;;;;;22.08;62.47;100024.19;4998382;28;20113;-75
2022/06/22 01:51:54;;;;;;;0.20;0.20;;;;;;;22.08;62.43;100021.38;4997503;28;20030;-75
2022/06/22 01:54:29;;;;;;;0.10;0.10;;;;;;;22.12;62.69;100025.72;4997315;28;20026;-75
2022/06/22 01:57:08;;;;;;;0.20;0.20;;;;;;;22.12;61.74;100024.94;5015304;28;20034;-75
2022/06/22 01:59:46;;;;;;;0.20;0.20;;;;;;;22.14;60.19;100014.75;5014578;28;20045;-75
2022/06/22 02:02:21;;;;;;;0.10;0.10;;;;;;;22.16;59.49;100009.44;4997294;28;20484;-75
2022/06/22 02:04:55;;;;;;;0.20;0.20;;;;;;;22.13;58.93;100009.53;4997099;28;20044;-75
2022/06/22 02:07:46;;;;;;;0.15;0.15;;;;;;;22.06;59.45;100009.69;4997351;28;20030;-75
2022/06/22 02:10:39;;;;;;;0.15;0.15;;;;;;;22.08;60.28;100013.66;4996961;28;20036;-75
2022/06/22 02:13:44;;;;;;;0.10;0.10;;;;;;;22.12;59.59;100008.72;4997070;28;20030;-75
2022/06/22 02:16:22;;;;;;;0.10;0.10;;;;;;;22.03;59.58;99996.41;4996943;28;20033;-75
2022/06/22 02:18:50;;;;;;;0.20;0.20;;;;;;;21.98;60.20;99989.25;4993528;28;20057;-75
2022/06/22 02:21:39;;;;;;;0.20;0.20;;;;;;;22.16;59.04;100000.94;4994130;28;20104;-75
2022/06/22 02:24:11;;;;;;;0.15;0.15;;;;;;;22.05;60.03;100003.25;4993619;28;20030;-75
2022/06/22 02:27:09;;;;;;;0.10;0.10;;;;;;;22.01;60.46;100002.53;4994468;28;20049;-75
2022/06/22 02:29:50;;;;;;;0.10;0.10;;;;;;;21.97;61.15;99991.28;4978244;28;20277;-75
2022/06/22 02:32:18;;;;;;;0.10;0.10;;;;;;;22.02;61.17;99997.66;4994193;28;20061;-75
2022/06/22 02:34:50;;;;;;;0.20;0.20;;;;;;;21.97;62.04;100002.63;4993594;28;20093;-76
2022/06/22 02:37:18;;;;;;;0.10;0.10;;;;;;;21.96;62.46;99998.19;4993852;28;20026;-75
2022/06/22 02:39:48;;;;;;;0.10;0.10;;;;;;;21.94;62.13;99997.84;4993455;28;20026;-77
2022/06/22 02:44:59;;;;;;;0.10;0.10;;;;;;;21.92;61.39;99983.31;4995022;28;20048;-77
2022/06/22 02:47:44;;;;;;;0.10;0.10;;;;;;;21.89;61.90;99991.91;4993339;28;20137;-77
2022/06/22 02:50:21;;;;;;;0.10;0.10;;;;;;;21.82;62.22;99990.06;4992977;28;20473;-77
2022/06/22 02:52:51;;;;;;;0.20;0.20;;;;;;;21.80;63.01;100003.09;4993149;28;20027;-75
2022/06/22 02:55:20;;;;;;;0.20;0.20;;;;;;;21.82;63.00;99995.72;4993502;28;20425;-76
2022/06/22 02:57:56;;;;;;;0.20;0.20;;;;;;;21.73;62.18;99972.91;4993235;28;20520;-75
2022/06/22 03:00:31;;;;;;;0.10;0.10;;;;;;;21.78;63.34;99983.69;4993061;28;20030;-75
2022/06/22 03:03:07;;;;;;;0.20;0.20;;;;;;;21.72;63.59;99985.47;4993627;28;20052;-75
2022/06/22 03:05:34;;;;;;;0.15;0.15;;;;;;;21.74;64.30;99985.84;4992970;28;20129;-75
2022/06/22 03:08:02;;;;;;;0.10;0.10;;;;;;;21.70;64.20;99976.66;4992828;28;20030;-75
2022/06/22 03:10:49;;;;;;;0.20;0.20;;;;;;;21.70;64.63;99982.31;4992787;28;20121;-76
2022/06/22 03:13:19;;;;;;;0.10;0.10;;;;;;;21.75;65.00;99978.94;4992996;28;20585;-75
2022/06/22 03:15:46;;;;;;;0.15;0.15;;;;;;;21.69;65.06;99969.41;4993225;28;20428;-75
2022/06/22 03:18:18;;;;;;;0.20;0.20;;;;;;;21.70;64.82;99976.66;4996306;28;20373;-76
2022/06/22 03:20:59;;;;;;;0.10;0.10;;;;;;;21.66;65.54;99982.38;5013819;28;20030;-76
2022/06/22 03:23:33;;;;;;;0.10;0.10;;;;;;;21.67;65.77;99988.84;4980150;28;20507;-75
2022/06/22 03:26:05;;;;;;;0.20;0.20;;;;;;;21.65;66.02;99980.00;4996084;28;20065;-76
2022/06/22 03:28:43;;;;;;;0.20;0.20;;;;;;;21.56;66.67;99983.44;4996106;28;20033;-76
2022/06/22 03:31:15;;;;;;;0.10;0.10;;;;;;;21.56;67.03;99982.66;5013666;28;20026;-75
2022/06/22 03:33:58;;;;;;;0.13;0.13;;;;;;;21.52;67.38;99988.44;4996109;28;20034;-76
2022/06/22 03:36:53;;;;;;;0.10;0.10;;;;;;;21.49;68.01;99989.31;4996561;28;20037;-75
2022/06/22 03:39:22;;;;;;;0.10;0.10;;;;;;;21.47;68.01;99982.50;4996001;28;20029;-75
2022/06/22 03:42:00;;;;;;;0.20;0.20;;;;;;;21.45;68.26;99983.72;4995634;28;20485;-76
2022/06/22 03:45:01;;;;;;;0.20;0.20;;;;;;;21.57;68.20;99984.25;4996446;28;20057;-75
2022/06/22 03:47:51;;;;;;;0.20;0.20;;;;;;;21.68;67.98;99981.97;5009658;28;20111;-76
2022/06/22 03:50:26;;;;;;;0.20;0.20;;;;;;;21.62;68.27;99983.72;4995877;28;20065;-76
2022/06/22 03:53:06;;;;;;;0.10;0.10;;;;;;;21.65;68.53;99997.00;4996061;28;20535;-76
2022/06/22 03:55:37;;;;;;;0.17;0.17;;;;;;;21.74;68.11;99976.56;4995829;28;20026;-76
2022/06/22 03:58:05;;;;;;;0.10;0.10;;;;;;;21.85;67.80;99982.75;4996105;28;20124;-75
2022/06/22 04:00:36;;;;;;;0.17;0.17;;;;;;;21.97;67.92;99984.81;4995739;28;20034;-76
2022/06/22 04:03:05;;;;;;;0.10;0.10;;;;;;;22.04;67.23;99973.28;5013087;28;20053;-75
2022/06/22 04:05:39;;;;;;;0.15;0.15;;;;;;;22.06;66.82;99978.53;4995705;28;20029;-75
2022/06/22 04:08:12;;;;;;;0.10;0.10;;;;;;;22.17;66.49;99968.53;4995979;28;20455;-76
2022/06/22 04:10:51;;;;;;;0.20;0.20;;;;;;;22.32;65.31;99974.59;4995419;28;20026;-76
2022/06/22 04:13:21;;;;;;;0.10;0.10;;;;;;;22.44;64.59;99973.81;4995244;28;20538;-76
2022/06/22 04:16:26;;;;;;;0.20;0.20;;;;;;;22.56;64.18;99979.97;4995233;28;20120;-76
2022/06/22 04:19:00;;;;;;;0.20;0.20;;;;;;;22.71;63.80;99981.16;4917171;29;20139;-76
2022/06/22 04:21:35;;;;;;;0.20;0.20;;;;;;;22.93;62.95;99981.31;4981674;28;20381;-76
2022/06/22 04:24:11;;;;;;;0.20;0.20;;;;;;;23.17;61.42;99991.09;4991862;28;20030;-76
2022/06/22 04:26:50;;;;;;;0.20;0.20;;;;;;;23.39;61.32;99991.19;4991711;28;20022;-76
2022/06/22 04:29:22;;;;;;;0.10;0.10;;;;;;;23.55;60.15;99987.44;4993002;28;20102;-75
2022/06/22 04:31:57;;;;;;;0.10;0.10;;;;;;;23.67;59.08;99985.84;4992049;28;20033;-75
2022/06/22 04:34:43;;;;;;;0.20;0.20;;;;;;;23.39;60.27;99985.53;4991954;28;20038;-76
2022/06/22 04:37:22;;;;;;;0.20;0.20;;;;;;;23.73;59.82;99993.31;4995964;28;20034;-75
2022/06/22 04:39:52;;;;;;;0.10;0.10;;;;;;;24.11;58.64;99994.47;4995727;28;20417;-76
2022/06/22 04:42:18;;;;;;;0.20;0.20;;;;;;;24.20;58.50;99997.38;4995875;28;20030;-76
2022/06/22 04:44:48;;;;;;;0.10;0.10;;;;;;;24.63;56.71;100002.31;4995590;28;20378;-76
2022/06/22 04:47:20;;;;;;;0.10;0.10;;;;;;;24.90;56.40;100004.53;4995875;28;20030;-76
2022/06/22 04:49:52;;;;;;;0.10;0.10;;;;;;;25.15;54.96;100003.59;4995663;28;20034;-76
2022/06/22 04:52:29;;;;;;;0.10;0.10;;;;;;;25.52;52.83;100004.53;4995941;28;20113;-76
2022/06/22 04:54:59;;;;;;;0.10;0.10;;;;;;;25.90;51.87;100000.53;4995418;28;20068;-76
2022/06/22 04:57:29;;;;;;;0.10;0.10;;;;;;;26.12;51.35;99997.53;4995895;28;20041;-75
2022/06/22 04:59:56;;;;;;;0.10;0.10;;;;;;;26.52;48.95;99994.50;4995523;28;20417;-76
2022/06/22 05:02:27;;;;;;;0.10;0.10;;;;;;;26.58;50.38;100011.78;4995624;28;20034;-76
2022/06/22 05:04:57;;;;;;;0.20;0.20;;;;;;;26.06;51.56;100011.63;4995200;28;20536;-76
2022/06/22 05:07:47;;;;;;;0.10;0.10;;;;;;;26.40;50.18;100015.41;4994888;28;20090;-76
2022/06/22 05:10:19;;;;;;;0.10;0.10;;;;;;;26.81;49.69;100019.69;4995319;28;20433;-76
2022/06/22 05:13:01;;;;;;;0.10;0.10;;;;;;;26.96;48.62;100016.97;4995535;28;20034;-76
2022/06/22 05:15:31;;;;;;;0.10;0.10;;;;;;;26.69;49.61;100028.44;4995501;28;20385;-76
2022/06/22 05:17:59;;;;;;;0.10;0.10;;;;;;;27.09;48.43;100026.13;4994871;28;20120;-76
2022/06/22 05:20:40;;;;;;;0.10;0.10;;;;;;;27.24;48.86;100006.25;4994742;28;20100;-76
2022/06/22 05:23:07;;;;;;;0.10;0.10;;;;;;;27.23;48.06;100029.59;4994977;28;20354;-76
2022/06/22 05:25:34;;;;;;;0.10;0.10;;;;;;;27.71;47.07;100024.78;4995752;28;20026;-76
2022/06/22 05:28:18;;;;;;;0.13;0.13;;;;;;;27.77;47.38;100020.00;4994773;28;20018;-76
2022/06/22 05:30:54;;;;;;;0.10;0.10;;;;;;;28.00;46.11;100035.56;4995147;28;20031;-76
2022/06/22 05:33:25;;;;;;;0.10;0.10;;;;;;;28.26;45.32;100035.84;4994722;28;20033;-76
2022/06/22 05:36:01;;;;;;;0.10;0.10;;;;;;;28.20;45.12;100043.53;4994915;28;20422;-76
2022/06/22 05:38:28;;;;;;;0.10;0.10;;;;;;;28.16;44.15;100037.97;4994610;28;20030;-76
2022/06/22 05:40:54;;;;;;;0.10;0.10;;;;;;;28.62;45.00;100043.34;4994570;28;20038;-75
2022/06/22 05:43:21;;;;;;;0.13;0.13;;;;;;;28.70;44.01;100040.88;4994883;28;20034;-75
2022/06/22 05:45:57;;;;;;;0.13;0.13;;;;;;;28.73;43.32;100033.41;4994703;28;20464;-76
2022/06/22 05:48:25;;;;;;;0.10;0.10;;;;;;;28.41;44.60;100035.91;4993812;28;20432;-76
2022/06/22 05:51:17;;;;;;;0.10;0.10;;;;;;;28.49;44.61;100034.25;4994844;28;20034;-77
2022/06/22 05:54:09;;;;;;;0.10;0.10;;;;;;;28.98;44.18;100021.41;4995828;28;20034;-76
2022/06/22 05:56:52;;;;;;;0.10;0.10;;;;;;;29.10;43.77;100014.56;4958116;28;20046;-76
2022/06/22 05:59:37;;;;;;;0.10;0.10;;;;;;;28.65;44.45;100022.31;4994674;28;20112;-76
2022/06/22 06:02:20;;;;;;;0.10;0.10;;;;;;;29.16;44.17;100021.19;4993997;28;20038;-76
2022/06/22 06:05:09;;;;;;;0.10;0.10;;;;;;;28.65;44.84;100018.66;4994034;28;20069;-76
2022/06/22 06:07:53;;;;;;;0.10;0.10;;;;;;;28.47;47.27;100016.78;4983446;28;20484;-76
2022/06/22 06:10:36;;;;;;;0.10;0.10;;;;;;;28.98;46.20;100021.41;4993910;28;20030;-76
2022/06/22 06:13:33;;;;;;;0.10;0.10;;;;;;;29.74;44.78;100025.22;4993942;28;20077;-77
2022/06/22 06:16:02;;;;;;;0.10;0.10;;;;;;;29.71;45.24;100020.47;4985775;28;20054;-76
2022/06/22 06:18:36;;;;;;;0.10;0.10;;;;;;;29.50;46.53;100022.50;4993637;28;20401;-76
2022/06/22 06:21:06;;;;;;;0.10;0.10;;;;;;;29.46;47.04;100021.94;4993733;28;20030;-76
2022/06/22 06:23:37;;;;;;;0.10;0.10;;;;;;;29.88;46.16;100020.75;4993823;28;20451;-76
2022/06/22 06:29:10;;;;;;;0.10;0.10;;;;;;;29.26;46.41;100023.94;4995236;28;20527;-76
2022/06/22 06:32:11;;;;;;;0.10;0.10;;;;;;;29.35;46.83;100018.88;4993890;28;20125;-76
2022/06/22 06:34:46;;;;;;;0.10;0.10;;;;;;;29.36;46.71;100016.81;4964049;28;20041;-77
2022/06/22 06:37:20;;;;;;;0.10;0.10;;;;;;;29.47;46.18;100011.25;4993528;28;20046;-76
2022/06/22 06:39:51;;;;;;;0.10;0.10;;;;;;;29.36;46.33;100005.34;4993565;28;20045;-76
2022/06/22 06:42:33;;;;;;;0.10;0.10;;;;;;;29.38;46.31;100008.50;4993183;28;20027;-76
2022/06/22 06:45:02;;;;;;;0.10;0.10;;;;;;;29.32;46.04;100014.13;4993622;28;20034;-76
2022/06/22 06:47:33;;;;;;;0.10;0.10;;;;;;;30.16;44.92;100015.38;4992834;28;20033;-76
2022/06/22 06:50:06;;;;;;;0.10;0.10;;;;;;;30.32;43.69;100028.38;4993258;28;20499;-76
2022/06/22 06:52:42;;;;;;;0.10;0.10;;;;;;;30.44;43.11;100032.16;4993851;28;20062;-76
2022/06/22 06:55:08;;;;;;;0.10;0.10;;;;;;;31.52;40.38;99995.28;4993266;28;20034;-76
2022/06/22 06:57:37;;;;;;;0.10;0.10;;;;;;;32.30;39.47;100021.59;4993685;28;20424;-76
2022/06/22 07:00:06;;;;;;;0.10;0.10;;;;;;;32.75;38.43;100024.63;4993249;28;20026;-76
2022/06/22 07:02:37;;;;;;;0.10;0.10;;;;;;;33.17;36.44;100025.75;4992950;28;20023;-77
2022/06/22 07:05:11;;;;;;;0.10;0.10;;;;;;;33.88;35.22;100026.19;4993247;28;20069;-76
2022/06/22 07:07:52;;;;;;;0.10;0.10;;;;;;;33.31;34.55;100030.47;4992758;28;20034;-76
2022/06/22 07:11:07;;;;;;;0.10;0.10;;;;;;;33.52;35.41;100044.63;4993444;28;20428;-76
2022/06/22 07:13:43;;;;;;;0.10;0.10;;;;;;;33.51;34.07;100034.41;4934236;29;20033;-76
2022/06/22 07:16:18;;;;;;;0.10;0.10;;;;;;;32.94;35.38;100042.25;4918077;29;20080;-76
2022/06/22 07:19:13;;;;;;;0.10;0.10;;;;;;;33.08;34.35;100044.09;4967192;28;20042;-76
2022/06/22 07:21:47;;;;;;;0.10;0.10;;;;;;;33.21;33.69;100048.53;4992725;28;20023;-76
2022/06/22 07:24:22;;;;;;;0.10;0.10;;;;;;;33.75;32.79;100051.94;4993288;28;20038;-76
2022/06/22 07:27:14;;;;;;;0.10;0.10;;;;;;;33.31;34.14;100050.66;4992632;28;20019;-76
2022/06/22 07:29:50;;;;;;;0.10;0.10;;;;;;;33.76;34.12;100059.25;4983678;28;20035;-76
2022/06/22 07:32:37;;;;;;;0.10;0.10;;;;;;;34.35;32.57;100058.06;4992901;28;20101;-76
2022/06/22 07:35:21;;;;;;;0.10;0.10;;;;;;;34.59;32.33;100054.56;4993490;28;20030;-76
2022/06/22 07:38:18;;;;;;;0.10;0.10;;;;;;;34.33;32.50;100049.16;4993143;28;20465;-76
2022/06/22 07:43:33;;;;;;;0.10;0.10;;;;;;;33.93;33.57;100055.56;4993969;28;20069;-76
2022/06/22 07:45:58;;;;;;;0.10;0.10;;;;;;;33.66;33.69;100060.06;4992468;28;20041;-76
2022/06/22 07:48:25;;;;;;;0.10;0.10;;;;;;;32.79;35.74;100065.50;4992019;28;20023;-76
2022/06/22 07:50:54;;;;;;;0.10;0.10;;;;;;;32.03;37.21;100071.19;4993057;28;20027;-76
2022/06/22 07:53:32;;;;;;;0.10;0.10;;;;;;;32.55;37.13;100074.59;4992496;28;20027;-76
2022/06/22 07:56:31;;;;;;;0.10;0.10;;;;;;;32.59;36.58;100068.56;4992934;28;20068;-76
2022/06/22 07:59:17;;;;;;;0.10;0.10;;;;;;;32.68;38.01;100073.31;4992761;28;20029;-76
2022/06/22 08:01:48;;;;;;;0.10;0.10;;;;;;;32.86;38.05;100076.50;4991873;28;20035;-76
2022/06/22 08:04:20;;;;;;;0.10;0.10;;;;;;;32.33;38.89;100062.94;4992629;28;20434;-77
2022/06/22 08:07:10;;;;;;;0.10;0.10;;;;;;;33.30;36.71;100077.91;4991960;28;20035;-76
2022/06/22 08:09:44;;;;;;;0.10;0.10;;;;;;;33.56;36.39;100083.44;4992107;28;20457;-76
2022/06/22 08:12:15;;;;;;;0.10;0.10;;;;;;;33.40;36.68;100092.03;4995934;28;20049;-76
2022/06/22 08:14:44;;;;;;;0.10;0.10;;;;;;;34.27;35.53;100102.47;4996079;28;20093;-76
2022/06/22 08:17:17;;;;;;;0.10;0.10;;;;;;;34.24;35.17;100098.53;4996521;28;20026;-76
2022/06/22 08:19:43;;;;;;;0.10;0.10;;;;;;;34.45;34.91;100101.09;4995506;28;20061;-77
2022/06/22 08:22:12;;;;;;;0.10;0.10;;;;;;;34.39;35.03;100099.00;4996344;28;20393;-76
2022/06/22 08:24:44;;;;;;;0.10;0.10;;;;;;;33.86;35.70;100100.94;4995819;28;20026;-76
2022/06/22 08:27:17;;;;;;;0.10;0.10;;;;;;;34.46;34.92;100099.78;4995652;28;20065;-76
2022/06/22 08:29:48;;;;;;;0.10;0.10;;;;;;;34.07;35.15;100101.47;4995632;28;20069;-76
2022/06/22 08:32:21;;;;;;;0.10;0.10;;;;;;;34.01;35.67;100091.25;4995503;28;20035;-76
2022/06/22 08:34:53;;;;;;;0.10;0.10;;;;;;;33.25;36.57;100095.19;4995701;28;20057;-76
2022/06/22 08:37:29;;;;;;;;;;;;;;;33.21;36.97;100094.66;4996241;28;20436;-76
2022/06/22 08:40:35;;;;;;;0.10;0.10;;;;;;;33.77;35.56;100086.81;4995918;28;20353;-76
2022/06/22 08:43:23;;;;;;;0.10;0.10;;;;;;;33.71;36.24;100093.91;4996302;28;20033;-76
2022/06/22 08:46:01;;;;;;;0.10;0.10;;;;;;;33.05;36.42;100081.81;4996789;28;20034;-76
2022/06/22 08:48:27;;;;;;;0.10;0.10;;;;;;;32.57;37.49;100086.38;4995219;28;20026;-76
2022/06/22 08:51:32;;;;;;;0.10;0.10;;;;;;;32.73;36.97;100079.09;4995350;28;20085;-76
2022/06/22 08:54:03;;;;;;;0.10;0.10;;;;;;;33.73;35.86;100079.75;4956181;28;20129;-76
2022/06/22 08:57:07;;;;;;;0.10;0.10;;;;;;;34.60;34.06;100078.44;4995328;28;20042;-76
2022/06/22 08:59:49;;;;;;;0.10;0.10;;;;;;;33.29;36.07;100073.47;4920227;29;20032;-76
2022/06/22 09:02:21;;;;;;;0.10;0.10;;;;;;;33.24;36.21;100073.44;4990396;28;20528;-76
2022/06/22 09:05:07;;;;;;;0.10;0.10;;;;;;;33.01;36.88;100066.88;4994632;28;20042;-76
2022/06/22 09:07:36;;;;;;;0.10;0.10;;;;;;;33.86;35.47;100051.91;4996507;28;20026;-76
2022/06/22 09:10:40;;;;;;;0.10;0.10;;;;;;;35.21;33.36;100067.81;4994607;28;20026;-76
2022/06/22 09:13:23;;;;;;;0.10;0.10;;;;;;;35.61;33.22;100066.97;4994714;28;20034;-76
2022/06/22 09:16:14;;;;;;;0.10;0.10;;;;;;;35.25;33.12;100062.53;4994769;28;20034;-77
2022/06/22 09:18:48;;;;;;;0.10;0.10;;;;;;;34.92;33.22;100059.34;4995052;28;20096;-76
2022/06/22 09:21:31;;;;;;;0.10;0.10;;;;;;;35.58;32.97;100065.19;4994758;28;20034;-76
2022/06/22 09:24:00;;;;;;;0.10;0.10;;;;;;;36.05;32.53;100058.38;4994937;28;20104;-76
2022/06/22 09:26:56;;;;;;;0.10;0.10;;;;;;;35.43;32.31;100056.88;4994990;28;20030;-76
2022/06/22 09:29:52;;;;;;;0.10;0.10;;;;;;;35.30;33.08;100042.25;4994938;28;20035;-76
2022/06/22 09:32:57;;;;;;;0.10;0.10;;;;;;;34.94;32.60;100038.59;4994483;28;20117;-76
2022/06/22 09:35:54;;;;;;;0.10;0.10;;;;;;;33.77;34.10;100046.44;4995106;28;20350;-75
2022/06/22 09:38:22;;;;;;;0.10;0.10;;;;;;;33.35;34.96;100035.97;4994383;28;20476;-76
2022/06/22 09:41:05;;;;;;;0.10;0.10;;;;;;;33.88;34.05;100034.84;4994855;28;20026;-76
2022/06/22 09:43:40;;;;;;;0.10;0.10;;;;;;;33.97;33.63;100033.00;4994982;28;20030;-76
2022/06/22 09:46:30;;;;;;;0.10;0.10;;;;;;;34.69;32.33;100031.91;4994117;28;20089;-76
2022/06/22 09:49:25;;;;;;;0.10;0.10;;;;;;;34.86;31.47;100035.47;4994865;28;20026;-76
2022/06/22 09:51:56;;;;;;;0.10;0.10;;;;;;;34.67;31.40;100040.31;4961113;28;20031;-76
2022/06/22 09:58:03;;;;;;;0.10;0.10;;;;;;;36.07;30.10;100059.44;4995859;28;20516;-76
2022/06/22 10:01:15;;;;;;;0.10;0.10;;;;;;;36.00;29.14;100070.81;4993811;28;20040;-80
2022/06/22 10:03:59;;;;;;;0.10;0.10;;;;;;;36.75;28.25;100062.22;4985428;28;20035;-76
2022/06/22 10:06:52;;;;;;;0.10;0.10;;;;;;;36.87;28.80;100057.06;4993458;28;20037;-76
2022/06/22 10:09:51;;;;;;;0.10;0.10;;;;;;;36.80;27.91;100070.06;4993448;28;20033;-77
2022/06/22 10:12:35;;;;;;;0.10;0.10;;;;;;;37.07;27.67;100070.22;4993238;28;20477;-77
2022/06/22 10:15:16;;;;;;;0.10;0.10;;;;;;;36.39;27.90;100047.19;4993315;28;20026;-77
2022/06/22 10:18:00;;;;;;;0.10;0.10;;;;;;;34.63;29.72;100075.28;4993294;28;20030;-77
2022/06/22 10:20:28;;;;;;;0.10;0.10;;;;;;;35.11;29.46;100078.97;4992818;28;20054;-77
2022/06/22 10:23:03;;;;;;;0.10;0.10;;;;;;;34.48;30.50;100089.28;4993372;28;20034;-77
2022/06/22 10:25:41;;;;;;;0.10;0.10;;;;;;;34.31;30.21;100072.00;4993204;28;20027;-77
2022/06/22 10:28:42;;;;;;;0.10;0.10;;;;;;;34.37;29.57;100103.75;4993225;28;20476;-77
2022/06/22 10:31:36;;;;;;;0.10;0.10;;;;;;;34.42;30.90;100094.28;4993698;28;20037;-76
2022/06/22 10:34:19;;;;;;;0.10;0.10;;;;;;;34.35;31.44;100098.47;4994063;28;20053;-76
2022/06/22 10:36:51;;;;;;;0.10;0.10;;;;;;;34.56;30.74;100109.72;4993500;28;20255;-76
2022/06/22 10:39:48;;;;;;;0.10;0.10;;;;;;;35.38;30.74;100106.09;4993412;28;20028;-76
2022/06/22 10:45:16;;;;;;;0.10;0.10;;;;;;;35.81;33.14;100114.94;4995132;28;20391;-76
2022/06/22 10:48:07;;;;;;;0.10;0.10;;;;;;;35.49;30.72;100111.03;4992988;28;20121;-76
2022/06/22 10:50:51;;;;;;;0.10;0.10;;;;;;;35.98;29.91;100111.91;4993966;28;20093;-76
2022/06/22 10:53:50;;;;;;;0.10;0.10;;;;;;;35.80;28.05;100096.00;4993216;28;20031;-76
2022/06/22 10:56:33;;;;;;;0.10;0.10;;;;;;;35.36;28.13;100091.38;4993368;28;20038;-76
2022/06/22 10:59:20;;;;;;;0.10;0.10;;;;;;;35.57;28.42;100088.84;4993064;28;20030;-75
2022/06/22 11:01:56;;;;;;;0.10;0.10;;;;;;;35.80;29.51;100087.31;4993123;28;20030;-75
2022/06/22 11:04:41;;;;;;;0.10;0.10;;;;;;;35.20;31.65;100087.28;4993606;28;20417;-76
2022/06/22 11:07:44;;;;;;;0.10;0.10;;;;;;;35.89;30.38;100072.47;4993781;28;20060;-75
2022/06/22 11:10:30;;;;;;;0.10;0.10;;;;;;;35.69;29.93;100046.94;4993043;28;20089;-76
2022/06/22 11:13:05;;;;;;;0.10;0.10;;;;;;;35.35;30.29;100058.78;4993536;28;20026;-76
2022/06/22 11:16:13;;;;;;;0.13;0.13;;;;;;;35.71;29.88;100058.75;4992957;28;20125;-76
2022/06/22 11:19:14;;;;;;;0.10;0.10;;;;;;;34.13;31.59;100058.16;4992746;28;20050;-76
2022/06/22 11:21:58;;;;;;;0.10;0.10;;;;;;;34.45;31.61;100054.91;4992900;28;20030;-76
2022/06/22 11:24:48;;;;;;;0.10;0.10;;;;;;;34.19;33.03;100050.25;4992781;28;20073;-76
2022/06/22 11:30:53;;;;;;;0.10;0.10;;;;;;;33.95;33.94;100052.97;4994387;28;20118;-75
2022/06/22 11:33:19;;;;;;;0.10;0.10;;;;;;;34.70;32.70;100055.81;4992838;28;20122;-75
2022/06/22 11:35:53;;;;;;;0.10;0.10;;;;;;;34.50;33.26;100062.75;4993640;28;20113;-76
2022/06/22 11:38:24;;;;;;;0.13;0.13;;;;;;;34.32;33.71;100061.22;4992655;28;20031;-75
2022/06/22 11:40:53;;;;;;;0.10;0.10;;;;;;;34.80;33.72;100048.41;4993468;28;20454;-75
2022/06/22 11:43:41;;;;;;;0.10;0.10;;;;;;;35.37;31.65;100061.94;4992667;28;20540;-76
2022/06/22 11:46:25;;;;;;;0.10;0.10;;;;;;;34.87;33.26;100039.94;4993377;28;20503;-76
2022/06/22 11:49:12;;;;;;;0.10;0.10;;;;;;;34.22;35.19;100054.97;4997351;28;20034;-75
2022/06/22 11:51:56;;;;;;;0.10;0.10;;;;;;;34.38;34.46;100028.13;4996566;28;20468;-76
2022/06/22 11:54:47;;;;;;;0.10;0.10;;;;;;;33.80;35.78;100041.69;4996867;28;20030;-75
2022/06/22 11:57:36;;;;;;;0.10;0.10;;;;;;;33.45;36.32;100048.03;4996915;28;20061;-75
2022/06/22 12:00:12;;;;;;;0.10;0.10;;;;;;;33.85;35.58;100038.78;4985804;28;20038;-75
2022/06/22 12:02:38;;;;;;;0.10;0.10;;;;;;;33.77;35.32;100040.66;4996449;28;20085;-75
2022/06/22 12:05:09;;;;;;;0.10;0.10;;;;;;;33.11;36.92;100030.72;4996248;28;20034;-75
2022/06/22 12:07:41;;;;;;;0.10;0.10;;;;;;;33.19;36.98;100028.91;4996870;28;20433;-75
2022/06/22 12:10:21;;;;;;;0.10;0.10;;;;;;;33.16;36.54;100023.38;4996487;28;20034;-75
2022/06/22 12:13:11;;;;;;;0.10;0.10;;;;;;;33.21;36.40;100037.81;4996698;28;20300;-75
2022/06/22 12:15:54;;;;;;;0.10;0.10;;;;;;;33.33;36.56;100032.81;4996297;28;20444;-75
2022/06/22 12:18:39;;;;;;;0.10;0.10;;;;;;;32.88;36.98;100015.50;4999071;28;20030;-75
2022/06/22 12:21:19;;;;;;;0.10;0.10;;;;;;;33.35;36.61;100024.44;5000041;28;20022;-75
2022/06/22 12:23:51;;;;;;;0.10;0.10;;;;;;;33.40;36.97;100014.19;4999268;28;20172;-77
2022/06/22 12:26:35;;;;;;;0.10;0.10;;;;;;;33.42;36.44;100017.38;4999839;28;20034;-76
2022/06/22 12:29:23;;;;;;;0.10;0.10;;;;;;;33.03;36.78;99987.25;4999172;28;20087;-76
2022/06/22 12:31:57;;;;;;;0.10;0.10;;;;;;;33.17;37.80;100019.97;4998840;28;20029;-77
2022/06/22 12:34:33;;;;;;;0.10;0.10;;;;;;;33.68;36.96;100023.63;4999153;28;20022;-76
2022/06/22 12:37:06;;;;;;;0.10;0.10;;;;;;;33.34;37.09;100022.84;4999182;28;20091;-76
2022/06/22 12:39:45;;;;;;;0.10;0.10;;;;;;;33.93;36.40;100020.91;4999037;28;20034;-76
2022/06/22 12:42:32;;;;;;;0.10;0.10;;;;;;;33.91;35.06;100006.25;4998848;28;20033;-76